sensor_id;sensor_type;location;lat;lon;timestamp;pressure;altitude;pressure_sealevel;temperature;humidity
50933;BME280;36921;49.006;9.292;2024-01-15T00:02:08;97841.97;;;-2.70;100.00
50933;BME280;36921;49.006;9.292;2024-01-15T00:04:37;97834.56;;;-2.66;100.00
50933;BME280;36921;49.006;9.292;2024-01-15T00:07:04;97835.66;;;-2.59;100.00
50933;BME280;36921;49.006;9.292;2024-01-15T00:09:29;97831.00;;;-2.47;100.00
50933;BME280;36921;49.006;9.292;2024-01-15T00:11:55;97833.81;;;-2.49;100.00
50933;BME280;36921;49.006;9.292;2024-01-15T00:14:20;97827.22;;;-2.45;100.00
50933;BME280;36921;49.006;9.292;2024-01-15T00:16:46;97828.06;;;-2.44;100.00
50933;BME280;36921;49.006;9.292;2024-01-15T00:19:12;97822.63;;;-2.43;100.00
50933;BME280;36921;49.006;9.292;2024-01-15T00:21:37;97814.66;;;-2.43;100.00
50933;BME280;36921;49.006;9.292;2024-01-15T00:24:03;97804.22;;;-2.44;100.00
50933;BME280;36921;49.006;9.292;2024-01-15T00:26:28;97801.81;;;-2.37;100.00
50933;BME280;36921;49.006;9.292;2024-01-15T00:28:54;97799.47;;;-2.40;100.00
50933;BME280;36921;49.006;9.292;2024-01-15T00:31:19;97807.22;;;-2.29;100.00
50933;BME280;36921;49.006;9.292;2024-01-15T00:33:45;97805.00;;;-2.34;100.00
50933;BME280;36921;49.006;9.292;2024-01-15T00:36:10;97787.50;;;-2.45;100.00
50933;BME280;36921;49.006;9.292;2024-01-15T00:38:36;97800.13;;;-2.38;100.00
50933;BME280;36921;49.006;9.292;2024-01-15T00:41:02;97792.19;;;-2.38;100.00
50933;BME280;36921;49.006;9.292;2024-01-15T00:43:28;97797.88;;;-2.33;100.00
50933;BME280;36921;49.006;9.292;2024-01-15T00:45:53;97781.91;;;-2.42;100.00
50933;BME280;36921;49.006;9.292;2024-01-15T00:48:18;97788.97;;;-2.32;100.00
50933;BME280;36921;49.006;9.292;2024-01-15T00:50:44;97797.13;;;-2.44;100.00
50933;BME280;36921;49.006;9.292;2024-01-15T00:53:09;97772.19;;;-2.51;100.00
50933;BME280;36921;49.006;9.292;2024-01-15T00:55:34;97785.97;;;-2.47;100.00
50933;BME280;36921;49.006;9.292;2024-01-15T00:57:59;97785.53;;;-2.43;100.00
50933;BME280;36921;49.006;9.292;2024-01-15T01:00:25;97784.72;;;-2.43;100.00
50933;BME280;36921;49.006;9.292;2024-01-15T01:02:50;97773.78;;;-2.30;100.00
50933;BME280;36921;49.006;9.292;2024-01-15T01:05:15;97764.59;;;-2.36;100.00
50933;BME280;36921;49.006;9.292;2024-01-15T01:07:40;97778.81;;;-2.37;100.00
50933;BME280;36921;49.006;9.292;2024-01-15T01:10:06;97775.13;;;-2.26;100.00
50933;BME280;36921;49.006;9.292;2024-01-15T01:12:31;97749.63;;;-2.27;100.00
50933;BME280;36921;49.006;9.292;2024-01-15T01:14:57;97755.31;;;-2.22;100.00
50933;BME280;36921;49.006;9.292;2024-01-15T01:17:24;97745.03;;;-2.25;100.00
50933;BME280;36921;49.006;9.292;2024-01-15T01:32:44;97747.25;;;-2.03;100.00
50933;BME280;36921;49.006;9.292;2024-01-15T01:35:10;97747.09;;;-2.01;100.00
50933;BME280;36921;49.006;9.292;2024-01-15T01:40:08;97739.97;;;-2.01;100.00
50933;BME280;36921;49.006;9.292;2024-01-15T01:42:34;97742.31;;;-1.98;100.00
50933;BME280;36921;49.006;9.292;2024-01-15T01:44:59;97743.16;;;-1.97;100.00
50933;BME280;36921;49.006;9.292;2024-01-15T01:47:51;97740.66;;;-1.99;100.00
50933;BME280;36921;49.006;9.292;2024-01-15T01:52:46;97744.09;;;-1.88;100.00
50933;BME280;36921;49.006;9.292;2024-01-15T01:55:12;97753.16;;;-1.91;100.00
50933;BME280;36921;49.006;9.292;2024-01-15T01:57:38;97746.03;;;-1.90;100.00
50933;BME280;36921;49.006;9.292;2024-01-15T02:00:04;97736.72;;;-1.94;100.00
50933;BME280;36921;49.006;9.292;2024-01-15T02:05:52;97747.13;;;-1.83;100.00
50933;BME280;36921;49.006;9.292;2024-01-15T02:08:18;97747.69;;;-1.89;100.00
50933;BME280;36921;49.006;9.292;2024-01-15T02:10:43;97742.78;;;-1.84;100.00
50933;BME280;36921;49.006;9.292;2024-01-15T02:13:09;97731.34;;;-1.85;100.00
50933;BME280;36921;49.006;9.292;2024-01-15T02:15:34;97753.31;;;-1.74;100.00
50933;BME280;36921;49.006;9.292;2024-01-15T02:18:04;97757.63;;;-1.73;100.00
50933;BME280;36921;49.006;9.292;2024-01-15T02:20:32;97722.88;;;-1.88;100.00
50933;BME280;36921;49.006;9.292;2024-01-15T02:23:12;97743.22;;;-1.71;100.00
50933;BME280;36921;49.006;9.292;2024-01-15T02:25:46;97726.50;;;-1.71;100.00
50933;BME280;36921;49.006;9.292;2024-01-15T02:28:14;97737.03;;;-1.62;100.00
50933;BME280;36921;49.006;9.292;2024-01-15T02:30:41;97742.84;;;-1.58;100.00
50933;BME280;36921;49.006;9.292;2024-01-15T02:33:08;97734.75;;;-1.57;100.00
50933;BME280;36921;49.006;9.292;2024-01-15T02:35:34;97740.66;;;-1.63;100.00
50933;BME280;36921;49.006;9.292;2024-01-15T02:38:02;97732.63;;;-1.71;100.00
50933;BME280;36921;49.006;9.292;2024-01-15T02:40:28;97741.50;;;-1.62;100.00
50933;BME280;36921;49.006;9.292;2024-01-15T02:42:53;97742.03;;;-1.59;100.00
50933;BME280;36921;49.006;9.292;2024-01-15T02:45:19;97753.31;;;-1.57;100.00
50933;BME280;36921;49.006;9.292;2024-01-15T02:47:45;97753.69;;;-1.51;100.00
50933;BME280;36921;49.006;9.292;2024-01-15T02:50:10;97736.78;;;-1.68;100.00
50933;BME280;36921;49.006;9.292;2024-01-15T02:52:35;97727.50;;;-1.72;100.00
50933;BME280;36921;49.006;9.292;2024-01-15T02:55:01;97738.16;;;-1.64;100.00
50933;BME280;36921;49.006;9.292;2024-01-15T02:57:26;97748.47;;;-1.61;100.00
50933;BME280;36921;49.006;9.292;2024-01-15T02:59:52;97744.38;;;-1.56;100.00
50933;BME280;36921;49.006;9.292;2024-01-15T03:02:17;97736.19;;;-1.62;100.00
50933;BME280;36921;49.006;9.292;2024-01-15T03:04:43;97737.91;;;-1.53;100.00
50933;BME280;36921;49.006;9.292;2024-01-15T03:07:09;97726.09;;;-1.59;100.00
50933;BME280;36921;49.006;9.292;2024-01-15T03:09:34;97736.78;;;-1.50;100.00
50933;BME280;36921;49.006;9.292;2024-01-15T03:11:59;97716.19;;;-1.57;100.00
50933;BME280;36921;49.006;9.292;2024-01-15T03:14:25;97739.13;;;-1.47;100.00
50933;BME280;36921;49.006;9.292;2024-01-15T03:16:51;97738.22;;;-1.38;100.00
50933;BME280;36921;49.006;9.292;2024-01-15T03:19:17;97724.34;;;-1.50;100.00
50933;BME280;36921;49.006;9.292;2024-01-15T03:21:42;97730.72;;;-1.43;100.00
50933;BME280;36921;49.006;9.292;2024-01-15T03:24:08;97724.88;;;-1.46;100.00
50933;BME280;36921;49.006;9.292;2024-01-15T03:26:33;97729.72;;;-1.42;100.00
50933;BME280;36921;49.006;9.292;2024-01-15T03:28:58;97729.19;;;-1.45;100.00
50933;BME280;36921;49.006;9.292;2024-01-15T03:31:24;97717.53;;;-1.52;100.00
50933;BME280;36921;49.006;9.292;2024-01-15T03:33:49;97724.19;;;-1.48;100.00
50933;BME280;36921;49.006;9.292;2024-01-15T03:36:14;97721.75;;;-1.42;100.00
50933;BME280;36921;49.006;9.292;2024-01-15T03:38:41;97732.00;;;-1.47;100.00
50933;BME280;36921;49.006;9.292;2024-01-15T03:41:07;97726.41;;;-1.44;100.00
50933;BME280;36921;49.006;9.292;2024-01-15T03:43:33;97735.69;;;-1.40;100.00
50933;BME280;36921;49.006;9.292;2024-01-15T03:45:59;97743.22;;;-1.35;100.00
50933;BME280;36921;49.006;9.292;2024-01-15T03:48:33;97729.06;;;-1.44;100.00
50933;BME280;36921;49.006;9.292;2024-01-15T03:53:28;97725.41;;;-1.43;100.00
50933;BME280;36921;49.006;9.292;2024-01-15T03:55:53;97724.56;;;-1.43;100.00
50933;BME280;36921;49.006;9.292;2024-01-15T03:58:18;97711.81;;;-1.40;100.00
50933;BME280;36921;49.006;9.292;2024-01-15T04:00:44;97706.53;;;-1.40;100.00
50933;BME280;36921;49.006;9.292;2024-01-15T04:03:09;97710.00;;;-1.39;100.00
50933;BME280;36921;49.006;9.292;2024-01-15T04:05:35;97685.38;;;-1.49;100.00
50933;BME280;36921;49.006;9.292;2024-01-15T04:08:00;97693.44;;;-1.41;100.00
50933;BME280;36921;49.006;9.292;2024-01-15T04:10:26;97699.09;;;-1.36;100.00
50933;BME280;36921;49.006;9.292;2024-01-15T04:12:51;97694.44;;;-1.34;100.00
50933;BME280;36921;49.006;9.292;2024-01-15T04:15:16;97693.78;;;-1.36;100.00
50933;BME280;36921;49.006;9.292;2024-01-15T04:17:42;97686.13;;;-1.39;100.00
50933;BME280;36921;49.006;9.292;2024-01-15T04:20:07;97690.66;;;-1.32;100.00
50933;BME280;36921;49.006;9.292;2024-01-15T04:22:35;97684.84;;;-1.35;100.00
50933;BME280;36921;49.006;9.292;2024-01-15T04:25:01;97682.31;;;-1.37;100.00
50933;BME280;36921;49.006;9.292;2024-01-15T04:27:26;97671.72;;;-1.37;100.00
50933;BME280;36921;49.006;9.292;2024-01-15T04:29:52;97671.94;;;-1.30;100.00
50933;BME280;36921;49.006;9.292;2024-01-15T04:32:18;97673.91;;;-1.32;100.00
50933;BME280;36921;49.006;9.292;2024-01-15T04:34:43;97642.03;;;-1.40;100.00
50933;BME280;36921;49.006;9.292;2024-01-15T04:37:09;97663.47;;;-1.34;100.00
50933;BME280;36921;49.006;9.292;2024-01-15T04:39:34;97698.38;;;-1.20;100.00
50933;BME280;36921;49.006;9.292;2024-01-15T04:42:00;97665.25;;;-1.34;100.00
50933;BME280;36921;49.006;9.292;2024-01-15T04:44:25;97685.25;;;-1.22;100.00
50933;BME280;36921;49.006;9.292;2024-01-15T04:46:50;97677.44;;;-1.23;100.00
50933;BME280;36921;49.006;9.292;2024-01-15T04:49:16;97682.28;;;-1.19;100.00
50933;BME280;36921;49.006;9.292;2024-01-15T04:51:41;97672.31;;;-1.25;100.00
50933;BME280;36921;49.006;9.292;2024-01-15T04:54:06;97668.66;;;-1.24;100.00
50933;BME280;36921;49.006;9.292;2024-01-15T04:56:32;97679.31;;;-1.16;100.00
50933;BME280;36921;49.006;9.292;2024-01-15T04:58:57;97656.06;;;-1.22;100.00
50933;BME280;36921;49.006;9.292;2024-01-15T05:01:23;97671.53;;;-1.17;100.00
50933;BME280;36921;49.006;9.292;2024-01-15T05:03:48;97659.44;;;-1.12;100.00
50933;BME280;36921;49.006;9.292;2024-01-15T05:06:14;97636.47;;;-1.21;100.00
50933;BME280;36921;49.006;9.292;2024-01-15T05:08:40;97658.97;;;-1.07;100.00
50933;BME280;36921;49.006;9.292;2024-01-15T05:11:05;97652.16;;;-1.09;100.00
50933;BME280;36921;49.006;9.292;2024-01-15T05:13:31;97660.91;;;-1.17;100.00
50933;BME280;36921;49.006;9.292;2024-01-15T05:15:56;97661.09;;;-1.11;100.00
50933;BME280;36921;49.006;9.292;2024-01-15T05:18:22;97667.06;;;-1.08;100.00
50933;BME280;36921;49.006;9.292;2024-01-15T05:20:47;97659.94;;;-1.08;100.00
50933;BME280;36921;49.006;9.292;2024-01-15T05:23:12;97667.13;;;-1.00;100.00
50933;BME280;36921;49.006;9.292;2024-01-15T05:25:38;97658.19;;;-0.99;100.00
50933;BME280;36921;49.006;9.292;2024-01-15T05:28:05;97661.19;;;-0.94;100.00
50933;BME280;36921;49.006;9.292;2024-01-15T05:30:30;97664.50;;;-0.92;100.00
50933;BME280;36921;49.006;9.292;2024-01-15T05:32:56;97655.69;;;-1.01;100.00
50933;BME280;36921;49.006;9.292;2024-01-15T05:35:22;97660.19;;;-0.93;100.00
50933;BME280;36921;49.006;9.292;2024-01-15T05:37:48;97651.19;;;-1.00;100.00
50933;BME280;36921;49.006;9.292;2024-01-15T05:40:14;97672.16;;;-0.89;100.00
50933;BME280;36921;49.006;9.292;2024-01-15T05:42:40;97667.84;;;-0.90;100.00
50933;BME280;36921;49.006;9.292;2024-01-15T05:45:05;97666.00;;;-0.90;100.00
50933;BME280;36921;49.006;9.292;2024-01-15T05:47:31;97662.53;;;-0.90;100.00
50933;BME280;36921;49.006;9.292;2024-01-15T05:49:57;97669.53;;;-0.89;100.00
50933;BME280;36921;49.006;9.292;2024-01-15T05:52:23;97669.53;;;-0.89;100.00
50933;BME280;36921;49.006;9.292;2024-01-15T05:54:49;97662.72;;;-0.83;100.00
50933;BME280;36921;49.006;9.292;2024-01-15T05:57:15;97661.38;;;-0.88;100.00
50933;BME280;36921;49.006;9.292;2024-01-15T05:59:40;97656.56;;;-0.84;100.00
50933;BME280;36921;49.006;9.292;2024-01-15T06:02:06;97649.59;;;-0.85;100.00
50933;BME280;36921;49.006;9.292;2024-01-15T06:04:31;97649.31;;;-0.74;100.00
50933;BME280;36921;49.006;9.292;2024-01-15T06:06:56;97644.78;;;-0.81;100.00
50933;BME280;36921;49.006;9.292;2024-01-15T06:09:24;97652.75;;;-0.81;100.00
50933;BME280;36921;49.006;9.292;2024-01-15T06:11:49;97657.59;;;-0.77;100.00
50933;BME280;36921;49.006;9.292;2024-01-15T06:14:15;97650.28;;;-0.83;100.00
50933;BME280;36921;49.006;9.292;2024-01-15T06:16:40;97653.78;;;-0.74;100.00
50933;BME280;36921;49.006;9.292;2024-01-15T06:19:06;97652.97;;;-0.75;100.00
50933;BME280;36921;49.006;9.292;2024-01-15T06:21:31;97657.63;;;-0.69;100.00
50933;BME280;36921;49.006;9.292;2024-01-15T06:23:56;97663.63;;;-0.67;100.00
50933;BME280;36921;49.006;9.292;2024-01-15T06:26:22;97649.97;;;-0.72;100.00
50933;BME280;36921;49.006;9.292;2024-01-15T06:28:48;97661.97;;;-0.68;100.00
50933;BME280;36921;49.006;9.292;2024-01-15T06:31:14;97657.00;;;-0.62;100.00
50933;BME280;36921;49.006;9.292;2024-01-15T06:33:39;97646.03;;;-0.68;100.00
50933;BME280;36921;49.006;9.292;2024-01-15T06:36:05;97650.81;;;-0.71;100.00
50933;BME280;36921;49.006;9.292;2024-01-15T06:38:31;97645.94;;;-0.84;100.00
50933;BME280;36921;49.006;9.292;2024-01-15T06:40:56;97642.31;;;-0.83;100.00
50933;BME280;36921;49.006;9.292;2024-01-15T06:43:22;97651.25;;;-0.84;100.00
50933;BME280;36921;49.006;9.292;2024-01-15T06:45:47;97638.94;;;-0.93;100.00
50933;BME280;36921;49.006;9.292;2024-01-15T06:48:12;97617.69;;;-1.01;100.00
50933;BME280;36921;49.006;9.292;2024-01-15T06:50:44;97600.72;;;-1.08;100.00
50933;BME280;36921;49.006;9.292;2024-01-15T06:53:10;97643.28;;;-0.84;100.00
50933;BME280;36921;49.006;9.292;2024-01-15T06:55:35;97577.97;;;-1.19;100.00
50933;BME280;36921;49.006;9.292;2024-01-15T06:58:01;97570.47;;;-1.24;100.00
50933;BME280;36921;49.006;9.292;2024-01-15T07:00:26;97567.47;;;-1.29;100.00
50933;BME280;36921;49.006;9.292;2024-01-15T07:02:52;97551.88;;;-1.32;100.00
50933;BME280;36921;49.006;9.292;2024-01-15T07:05:18;97622.22;;;-0.85;100.00
50933;BME280;36921;49.006;9.292;2024-01-15T07:07:43;97557.88;;;-1.22;100.00
50933;BME280;36921;49.006;9.292;2024-01-15T07:10:09;97619.13;;;-0.73;100.00
50933;BME280;36921;49.006;9.292;2024-01-15T07:12:34;97617.94;;;-0.78;100.00
50933;BME280;36921;49.006;9.292;2024-01-15T07:15:00;97619.91;;;-0.80;100.00
50933;BME280;36921;49.006;9.292;2024-01-15T07:17:25;97635.19;;;-0.82;100.00
50933;BME280;36921;49.006;9.292;2024-01-15T07:19:52;97634.31;;;-0.91;100.00
50933;BME280;36921;49.006;9.292;2024-01-15T07:22:17;97639.31;;;-0.88;100.00
50933;BME280;36921;49.006;9.292;2024-01-15T07:24:43;97651.94;;;-0.82;100.00
50933;BME280;36921;49.006;9.292;2024-01-15T07:27:16;97639.84;;;-0.76;100.00
50933;BME280;36921;49.006;9.292;2024-01-15T07:29:41;97647.97;;;-0.78;100.00
50933;BME280;36921;49.006;9.292;2024-01-15T07:32:07;97650.81;;;-0.71;100.00
50933;BME280;36921;49.006;9.292;2024-01-15T07:34:33;97657.16;;;-0.64;100.00
50933;BME280;36921;49.006;9.292;2024-01-15T07:36:58;97655.50;;;-0.65;100.00
50933;BME280;36921;49.006;9.292;2024-01-15T07:39:24;97657.97;;;-0.63;100.00
50933;BME280;36921;49.006;9.292;2024-01-15T07:41:51;97663.63;;;-0.58;100.00
50933;BME280;36921;49.006;9.292;2024-01-15T07:44:16;97657.63;;;-0.69;100.00
50933;BME280;36921;49.006;9.292;2024-01-15T07:46:47;97669.63;;;-0.56;100.00
50933;BME280;36921;49.006;9.292;2024-01-15T07:49:13;97665.31;;;-0.65;100.00
50933;BME280;36921;49.006;9.292;2024-01-15T07:51:39;97668.94;;;-0.67;100.00
50933;BME280;36921;49.006;9.292;2024-01-15T07:54:11;97665.44;;;-0.67;100.00
50933;BME280;36921;49.006;9.292;2024-01-15T07:56:56;97667.09;;;-0.66;100.00
50933;BME280;36921;49.006;9.292;2024-01-15T07:59:21;97667.97;;;-0.65;100.00
50933;BME280;36921;49.006;9.292;2024-01-15T08:01:46;97665.47;;;-0.59;100.00
50933;BME280;36921;49.006;9.292;2024-01-15T08:04:12;97663.06;;;-0.36;100.00
50933;BME280;36921;49.006;9.292;2024-01-15T08:06:38;97660.19;;;-0.42;100.00
50933;BME280;36921;49.006;9.292;2024-01-15T08:09:03;97648.06;;;-0.45;100.00
50933;BME280;36921;49.006;9.292;2024-01-15T08:11:29;97638.78;;;-0.49;100.00
50933;BME280;36921;49.006;9.292;2024-01-15T08:13:55;97639.63;;;-0.40;100.00
50933;BME280;36921;49.006;9.292;2024-01-15T08:16:20;97644.59;;;-0.37;100.00
50933;BME280;36921;49.006;9.292;2024-01-15T08:18:47;97643.13;;;-0.32;100.00
50933;BME280;36921;49.006;9.292;2024-01-15T08:21:12;97649.44;;;-0.25;100.00
50933;BME280;36921;49.006;9.292;2024-01-15T08:23:38;97642.16;;;-0.14;100.00
50933;BME280;36921;49.006;9.292;2024-01-15T08:26:04;97647.81;;;-0.17;100.00
50933;BME280;36921;49.006;9.292;2024-01-15T08:28:30;97656.47;;;-0.15;100.00
50933;BME280;36921;49.006;9.292;2024-01-15T08:30:55;97653.13;;;-0.09;100.00
50933;BME280;36921;49.006;9.292;2024-01-15T08:33:21;97650.13;;;-0.14;100.00
50933;BME280;36921;49.006;9.292;2024-01-15T08:35:47;97650.63;;;-0.19;100.00
50933;BME280;36921;49.006;9.292;2024-01-15T08:38:12;97649.47;;;-0.16;100.00
50933;BME280;36921;49.006;9.292;2024-01-15T08:40:37;97642.81;;;-0.29;100.00
50933;BME280;36921;49.006;9.292;2024-01-15T08:43:03;97645.81;;;-0.15;100.00
50933;BME280;36921;49.006;9.292;2024-01-15T08:45:28;97633.84;;;-0.03;100.00
50933;BME280;36921;49.006;9.292;2024-01-15T08:47:54;97639.84;;;-0.09;100.00
50933;BME280;36921;49.006;9.292;2024-01-15T08:50:19;97643.81;;;-0.13;100.00
50933;BME280;36921;49.006;9.292;2024-01-15T08:52:44;97638.50;;;-0.13;100.00
50933;BME280;36921;49.006;9.292;2024-01-15T08:55:11;97642.50;;;-0.01;100.00
50933;BME280;36921;49.006;9.292;2024-01-15T08:57:38;97636.03;;;0.02;100.00
50933;BME280;36921;49.006;9.292;2024-01-15T09:00:04;97637.53;;;0.12;100.00
50933;BME280;36921;49.006;9.292;2024-01-15T09:02:34;97633.22;;;0.19;100.00
50933;BME280;36921;49.006;9.292;2024-01-15T09:05:00;97637.50;;;0.20;100.00
50933;BME280;36921;49.006;9.292;2024-01-15T09:07:25;97635.53;;;0.31;100.00
50933;BME280;36921;49.006;9.292;2024-01-15T09:09:52;97635.03;;;0.35;100.00
50933;BME280;36921;49.006;9.292;2024-01-15T09:12:17;97622.88;;;0.41;100.00
50933;BME280;36921;49.006;9.292;2024-01-15T09:14:43;97625.19;;;0.44;100.00
50933;BME280;36921;49.006;9.292;2024-01-15T09:17:09;97623.06;;;0.23;100.00
50933;BME280;36921;49.006;9.292;2024-01-15T09:19:34;97621.22;;;0.24;100.00
50933;BME280;36921;49.006;9.292;2024-01-15T09:22:00;97606.44;;;0.29;100.00
50933;BME280;36921;49.006;9.292;2024-01-15T09:24:25;97610.06;;;0.36;100.00
50933;BME280;36921;49.006;9.292;2024-01-15T09:26:50;97621.22;;;0.40;100.00
50933;BME280;36921;49.006;9.292;2024-01-15T09:29:16;97626.19;;;0.51;100.00
50933;BME280;36921;49.006;9.292;2024-01-15T09:31:43;97623.53;;;0.51;100.00
50933;BME280;36921;49.006;9.292;2024-01-15T09:34:08;97624.53;;;0.50;100.00
50933;BME280;36921;49.006;9.292;2024-01-15T09:36:39;97614.72;;;0.51;100.00
50933;BME280;36921;49.006;9.292;2024-01-15T09:39:05;97615.41;;;0.53;100.00
50933;BME280;36921;49.006;9.292;2024-01-15T09:41:34;97609.22;;;0.60;100.00
50933;BME280;36921;49.006;9.292;2024-01-15T09:44:00;97611.66;;;0.78;100.00
50933;BME280;36921;49.006;9.292;2024-01-15T09:46:27;97605.47;;;0.86;100.00
50933;BME280;36921;49.006;9.292;2024-01-15T09:48:52;97604.16;;;0.90;100.00
50933;BME280;36921;49.006;9.292;2024-01-15T09:51:20;97596.81;;;0.92;100.00
50933;BME280;36921;49.006;9.292;2024-01-15T09:53:47;97597.00;;;0.82;100.00
50933;BME280;36921;49.006;9.292;2024-01-15T09:56:14;97582.84;;;0.90;100.00
50933;BME280;36921;49.006;9.292;2024-01-15T09:58:39;97576.16;;;0.94;100.00
50933;BME280;36921;49.006;9.292;2024-01-15T10:01:07;97583.50;;;0.92;100.00
50933;BME280;36921;49.006;9.292;2024-01-15T10:03:33;97577.88;;;0.87;100.00
50933;BME280;36921;49.006;9.292;2024-01-15T10:05:59;97575.50;;;0.92;100.00
50933;BME280;36921;49.006;9.292;2024-01-15T10:08:25;97582.13;;;0.96;100.00
50933;BME280;36921;49.006;9.292;2024-01-15T10:10:50;97576.81;;;0.96;100.00
50933;BME280;36921;49.006;9.292;2024-01-15T10:13:16;97579.66;;;0.95;100.00
50933;BME280;36921;49.006;9.292;2024-01-15T10:15:45;97576.47;;;0.99;100.00
50933;BME280;36921;49.006;9.292;2024-01-15T10:18:11;97578.66;;;0.96;100.00
50933;BME280;36921;49.006;9.292;2024-01-15T10:20:37;97571.88;;;0.85;100.00
50933;BME280;36921;49.006;9.292;2024-01-15T10:23:03;97565.19;;;0.89;100.00
50933;BME280;36921;49.006;9.292;2024-01-15T10:25:29;97571.72;;;0.86;100.00
50933;BME280;36921;49.006;9.292;2024-01-15T10:28:01;97561.06;;;0.86;100.00
50933;BME280;36921;49.006;9.292;2024-01-15T10:30:27;97557.94;;;0.75;100.00
50933;BME280;36921;49.006;9.292;2024-01-15T10:32:59;97560.56;;;0.83;100.00
50933;BME280;36921;49.006;9.292;2024-01-15T10:35:33;97554.25;;;0.76;100.00
50933;BME280;36921;49.006;9.292;2024-01-15T10:38:00;97553.78;;;0.72;100.00
50933;BME280;36921;49.006;9.292;2024-01-15T10:40:25;97537.81;;;0.72;100.00
50933;BME280;36921;49.006;9.292;2024-01-15T10:42:51;97543.13;;;0.72;100.00
50933;BME280;36921;49.006;9.292;2024-01-15T10:45:17;97545.94;;;0.79;100.00
50933;BME280;36921;49.006;9.292;2024-01-15T10:47:42;97547.94;;;0.77;100.00
50933;BME280;36921;49.006;9.292;2024-01-15T10:50:08;97540.94;;;0.76;100.00
50933;BME280;36921;49.006;9.292;2024-01-15T10:52:36;97538.63;;;0.73;100.00
50933;BME280;36921;49.006;9.292;2024-01-15T10:55:08;97539.47;;;0.73;100.00
50933;BME280;36921;49.006;9.292;2024-01-15T10:57:35;97537.47;;;0.75;100.00
50933;BME280;36921;49.006;9.292;2024-01-15T11:00:01;97536.63;;;0.75;100.00
50933;BME280;36921;49.006;9.292;2024-01-15T11:02:29;97538.28;;;0.84;100.00
50933;BME280;36921;49.006;9.292;2024-01-15T11:04:55;97541.09;;;0.82;100.00
50933;BME280;36921;49.006;9.292;2024-01-15T11:07:22;97532.59;;;0.87;100.00
50933;BME280;36921;49.006;9.292;2024-01-15T11:09:49;97531.94;;;0.85;100.00
50933;BME280;36921;49.006;9.292;2024-01-15T11:12:16;97530.84;;;0.71;100.00
50933;BME280;36921;49.006;9.292;2024-01-15T11:17:11;97545.66;;;0.57;100.00
50933;BME280;36921;49.006;9.292;2024-01-15T11:19:48;97537.53;;;0.59;100.00
50933;BME280;36921;49.006;9.292;2024-01-15T11:25:03;97536.41;;;0.45;100.00
50933;BME280;36921;49.006;9.292;2024-01-15T11:27:43;97537.25;;;0.46;100.00
50933;BME280;36921;49.006;9.292;2024-01-15T11:30:10;97539.44;;;0.26;100.00
50933;BME280;36921;49.006;9.292;2024-01-15T11:32:38;97540.78;;;0.21;100.00
50933;BME280;36921;49.006;9.292;2024-01-15T11:35:07;97547.44;;;0.17;100.00
50933;BME280;36921;49.006;9.292;2024-01-15T11:40:21;97529.31;;;0.21;100.00
50933;BME280;36921;49.006;9.292;2024-01-15T11:42:47;97526.16;;;0.17;100.00
50933;BME280;36921;49.006;9.292;2024-01-15T11:45:18;97536.63;;;0.27;100.00
50933;BME280;36921;49.006;9.292;2024-01-15T11:50:09;97542.09;;;0.17;100.00
50933;BME280;36921;49.006;9.292;2024-01-15T11:52:37;97528.81;;;0.17;100.00
50933;BME280;36921;49.006;9.292;2024-01-15T11:57:53;97530.50;;;0.18;100.00
50933;BME280;36921;49.006;9.292;2024-01-15T12:00:22;97534.47;;;0.14;100.00
50933;BME280;36921;49.006;9.292;2024-01-15T12:02:48;97535.16;;;0.08;100.00
50933;BME280;36921;49.006;9.292;2024-01-15T12:05:15;97536.66;;;0.11;100.00
50933;BME280;36921;49.006;9.292;2024-01-15T12:07:42;97545.06;;;0.31;100.00
50933;BME280;36921;49.006;9.292;2024-01-15T12:10:11;97542.41;;;0.31;100.00
50933;BME280;36921;49.006;9.292;2024-01-15T12:15:21;97530.41;;;0.43;100.00
50933;BME280;36921;49.006;9.292;2024-01-15T12:17:47;97537.41;;;0.36;100.00
50933;BME280;36921;49.006;9.292;2024-01-15T12:20:13;97543.75;;;0.35;100.00
50933;BME280;36921;49.006;9.292;2024-01-15T12:22:39;97532.91;;;0.36;100.00
50933;BME280;36921;49.006;9.292;2024-01-15T12:25:04;97533.28;;;0.25;100.00
50933;BME280;36921;49.006;9.292;2024-01-15T12:27:30;97535.50;;;0.13;100.00
50933;BME280;36921;49.006;9.292;2024-01-15T12:29:55;97532.78;;;0.30;100.00
50933;BME280;36921;49.006;9.292;2024-01-15T12:32:21;97530.78;;;0.24;100.00
50933;BME280;36921;49.006;9.292;2024-01-15T12:34:49;97533.44;;;0.40;100.00
50933;BME280;36921;49.006;9.292;2024-01-15T12:37:15;97536.13;;;0.32;100.00
50933;BME280;36921;49.006;9.292;2024-01-15T12:39:43;97522.34;;;0.12;100.00
50933;BME280;36921;49.006;9.292;2024-01-15T12:42:09;97536.47;;;0.12;100.00
50933;BME280;36921;49.006;9.292;2024-01-15T12:44:35;97518.03;;;0.03;100.00
50933;BME280;36921;49.006;9.292;2024-01-15T12:47:04;97536.44;;;0.29;100.00
50933;BME280;36921;49.006;9.292;2024-01-15T12:49:30;97534.41;;;0.39;100.00
50933;BME280;36921;49.006;9.292;2024-01-15T12:51:59;97532.78;;;0.30;100.00
50933;BME280;36921;49.006;9.292;2024-01-15T12:54:25;97541.09;;;0.35;100.00
50933;BME280;36921;49.006;9.292;2024-01-15T12:56:50;97536.44;;;0.37;100.00
50933;BME280;36921;49.006;9.292;2024-01-15T12:59:19;97530.59;;;0.33;100.00
50933;BME280;36921;49.006;9.292;2024-01-15T13:01:45;97547.38;;;0.34;100.00
50933;BME280;36921;49.006;9.292;2024-01-15T13:04:11;97522.81;;;0.15;100.00
50933;BME280;36921;49.006;9.292;2024-01-15T13:06:37;97545.94;;;0.15;100.00
50933;BME280;36921;49.006;9.292;2024-01-15T13:09:03;97553.41;;;0.19;100.00
50933;BME280;36921;49.006;9.292;2024-01-15T13:11:32;97558.75;;;0.03;100.00
50933;BME280;36921;49.006;9.292;2024-01-15T13:13:58;97560.25;;;0.14;100.00
50933;BME280;36921;49.006;9.292;2024-01-15T13:16:23;97557.91;;;0.03;100.00
50933;BME280;36921;49.006;9.292;2024-01-15T13:18:52;97554.41;;;0.02;100.00
50933;BME280;36921;49.006;9.292;2024-01-15T13:21:17;97576.03;;;0.07;100.00
50933;BME280;36921;49.006;9.292;2024-01-15T13:23:43;97567.38;;;-0.11;100.00
50933;BME280;36921;49.006;9.292;2024-01-15T13:26:08;97577.72;;;0.08;100.00
50933;BME280;36921;49.006;9.292;2024-01-15T13:28:33;97576.03;;;0.07;100.00